createdAt,value
2023-01-25T00:01:09.562Z,121.40
2023-01-25T00:03:11.146Z,139.88
2023-01-25T00:05:12.716Z,142.13
2023-01-25T00:07:14.222Z,148.32
2023-01-25T00:09:16.978Z,105.07
2023-01-25T00:11:19.897Z,103.18
2023-01-25T00:13:21.424Z,85.18
2023-01-25T00:15:23.694Z,102.50
2023-01-25T00:17:26.355Z,82.22
2023-01-25T00:19:27.897Z,80.15
2023-01-25T00:21:29.459Z,105.28
2023-01-25T00:23:34.332Z,100.75
2023-01-25T00:25:35.896Z,97.35
2023-01-25T00:27:37.441Z,84.95
2023-01-25T00:29:38.937Z,80.97
2023-01-25T00:31:58.788Z,72.60
2023-01-25T00:34:24.866Z,62.08
2023-01-25T00:36:37.249Z,50.97
2023-01-25T00:38:38.800Z,43.70
2023-01-25T00:40:40.325Z,67.50
2023-01-25T00:42:42.053Z,55.33
2023-01-25T00:44:43.867Z,48.67
2023-01-25T00:46:45.539Z,48.47
2023-01-25T00:48:47.241Z,47.25
2023-01-25T00:50:48.755Z,39.15
2023-01-25T00:52:50.317Z,36.30
2023-01-25T00:54:51.811Z,39.83
2023-01-25T00:56:53.951Z,58.35
2023-01-25T00:58:55.482Z,63.67
2023-01-25T01:00:57.696Z,121.10
2023-01-25T01:02:59.258Z,54.42
2023-01-25T01:05:01.316Z,80.80
2023-01-25T01:07:03.114Z,46.63
2023-01-25T01:09:06.873Z,47.53
2023-01-25T01:11:12.549Z,36.53
2023-01-25T01:13:14.067Z,50.95
2023-01-25T01:15:15.658Z,48.97
2023-01-25T01:17:17.163Z,54.65
2023-01-25T01:19:18.805Z,75.65
2023-01-25T01:21:20.840Z,55.15
2023-01-25T01:23:22.334Z,59.00
2023-01-25T01:25:24.002Z,60.05
2023-01-25T01:27:25.507Z,54.90
2023-01-25T01:29:27.076Z,68.60
2023-01-25T01:31:28.858Z,68.80
2023-01-25T01:33:30.552Z,33.83
2023-01-25T01:35:33.056Z,71.07
2023-01-25T01:37:34.541Z,75.47
2023-01-25T01:39:36.122Z,67.70
2023-01-25T01:41:38.278Z,45.95
2023-01-25T01:43:40.034Z,56.33
2023-01-25T01:45:50.736Z,56.75
2023-01-25T01:47:52.345Z,49.10
2023-01-25T01:49:58.206Z,41.40
2023-01-25T01:52:04.545Z,49.78
2023-01-25T01:54:14.328Z,77.35
2023-01-25T01:56:23.682Z,46.00
2023-01-25T01:58:26.031Z,40.45
2023-01-25T02:00:32.646Z,34.53
2023-01-25T02:02:34.335Z,36.45
2023-01-25T02:04:36.064Z,45.00
2023-01-25T02:07:02.053Z,44.40
2023-01-25T02:09:03.734Z,41.40
2023-01-25T02:11:05.557Z,42.72
2023-01-25T02:13:07.058Z,47.13
2023-01-25T02:15:09.623Z,81.40
2023-01-25T02:17:12.234Z,70.10
2023-01-25T02:19:38.388Z,57.72
2023-01-25T02:21:46.004Z,47.75
2023-01-25T02:24:06.125Z,40.00
2023-01-25T02:26:07.954Z,42.97
2023-01-25T02:28:14.276Z,39.92
2023-01-25T02:30:16.231Z,38.03
2023-01-25T02:32:17.808Z,37.22
2023-01-25T02:34:19.300Z,31.98
2023-01-25T02:36:29.934Z,34.97
2023-01-25T02:38:34.251Z,29.88
2023-01-25T02:41:01.184Z,40.85
2023-01-25T02:43:02.766Z,34.42
2023-01-25T02:45:06.978Z,39.15
2023-01-25T02:47:09.177Z,31.92
2023-01-25T02:49:11.756Z,31.48
2023-01-25T02:51:13.288Z,28.00
2023-01-25T02:53:14.807Z,27.80
2023-01-25T02:55:16.420Z,28.33
2023-01-25T02:57:17.966Z,27.60
2023-01-25T02:59:19.592Z,25.77
2023-01-25T03:01:21.849Z,23.42
2023-01-25T03:03:23.378Z,24.92
2023-01-25T03:05:25.001Z,32.90
2023-01-25T03:07:26.497Z,33.88
2023-01-25T03:09:28.121Z,39.10
2023-01-25T03:11:29.635Z,42.15
2023-01-25T03:13:31.976Z,46.47
2023-01-25T03:15:33.530Z,34.70
2023-01-25T03:17:35.041Z,45.33
2023-01-25T03:19:36.566Z,47.60
2023-01-25T03:21:40.612Z,62.35
2023-01-25T03:23:43.450Z,75.07
2023-01-25T03:25:44.921Z,105.95
2023-01-25T03:27:46.426Z,85.18
2023-01-25T03:29:47.991Z,79.80
2023-01-25T03:31:49.650Z,104.72
2023-01-25T03:33:51.494Z,106.97
2023-01-25T03:35:54.531Z,75.32
2023-01-25T03:37:56.068Z,66.80
2023-01-25T03:39:58.179Z,54.08
2023-01-25T03:41:59.670Z,40.95
2023-01-25T03:44:01.186Z,49.55
2023-01-25T03:46:02.895Z,47.97
2023-01-25T03:48:04.909Z,27.23
2023-01-25T03:50:07.315Z,40.97
2023-01-25T03:52:09.363Z,41.15
2023-01-25T03:54:10.964Z,35.33
2023-01-25T03:56:17.560Z,45.90
2023-01-25T03:58:19.110Z,41.42
2023-01-25T04:00:21.869Z,49.22
2023-01-25T04:02:23.467Z,42.25
2023-01-25T04:04:25.028Z,38.92
2023-01-25T04:06:26.520Z,108.13
2023-01-25T04:08:28.100Z,47.83
2023-01-25T04:10:29.653Z,39.25
2023-01-25T04:12:31.168Z,40.17
2023-01-25T04:14:44.062Z,34.22
2023-01-25T04:16:46.465Z,43.17
2023-01-25T04:18:48.051Z,34.22
2023-01-25T04:20:56.738Z,36.55
2023-01-25T04:22:58.379Z,22.83
2023-01-25T04:24:59.947Z,24.05
2023-01-25T04:27:01.437Z,21.95
2023-01-25T04:29:02.978Z,25.92
2023-01-25T04:31:06.199Z,30.50
2023-01-25T04:33:08.096Z,39.13
2023-01-25T04:35:09.977Z,33.75
2023-01-25T04:37:11.779Z,35.17
2023-01-25T04:39:13.325Z,40.75
2023-01-25T04:41:14.803Z,32.80
2023-01-25T04:43:17.176Z,28.45
2023-01-25T04:45:18.762Z,34.63
2023-01-25T04:47:20.267Z,50.28
2023-01-25T04:49:21.779Z,34.22
2023-01-25T04:51:23.364Z,54.30
2023-01-25T04:53:24.881Z,39.40
2023-01-25T04:55:26.439Z,33.22
2023-01-25T04:57:27.959Z,26.35
2023-01-25T04:59:29.495Z,25.83
2023-01-25T05:01:33.398Z,28.50
2023-01-25T05:03:35.036Z,29.67
2023-01-25T05:05:36.547Z,27.30
2023-01-25T05:07:38.160Z,28.90
2023-01-25T05:09:39.676Z,24.55
2023-01-25T05:11:41.205Z,24.90
2023-01-25T05:13:42.789Z,51.95
2023-01-25T05:15:44.451Z,33.97
2023-01-25T05:17:45.969Z,32.38
2023-01-25T05:19:47.519Z,23.77
2023-01-25T05:21:58.297Z,25.27
2023-01-25T05:23:59.855Z,23.65
2023-01-25T05:26:20.110Z,26.60
2023-01-25T05:28:21.756Z,31.70
2023-01-25T05:30:23.394Z,42.35
2023-01-25T05:32:25.224Z,42.55
2023-01-25T05:34:26.810Z,33.78
2023-01-25T05:36:28.346Z,41.72
2023-01-25T05:38:30.455Z,36.15
2023-01-25T05:40:32.077Z,33.92
2023-01-25T05:42:33.749Z,38.95
2023-01-25T05:44:35.225Z,42.33
2023-01-25T05:46:36.755Z,40.38
2023-01-25T05:48:39.539Z,40.20
2023-01-25T05:50:41.059Z,41.75
2023-01-25T05:52:42.605Z,37.35
2023-01-25T05:54:44.183Z,40.40
2023-01-25T05:56:45.758Z,32.38
2023-01-25T05:58:47.272Z,31.30
2023-01-25T06:00:48.845Z,43.70
2023-01-25T06:02:50.472Z,59.53
2023-01-25T06:04:52.135Z,71.47
2023-01-25T06:06:53.703Z,229.63
2023-01-25T06:08:55.248Z,83.85
2023-01-25T06:10:57.229Z,149.40
2023-01-25T06:12:59.337Z,49.80
2023-01-25T06:15:00.875Z,53.90
2023-01-25T06:17:02.406Z,62.08
2023-01-25T06:19:05.573Z,71.43
2023-01-25T06:21:07.403Z,58.63
2023-01-25T06:23:08.926Z,76.85
2023-01-25T06:25:10.848Z,81.18
2023-01-25T06:27:12.776Z,89.45
2023-01-25T06:29:14.389Z,104.03
2023-01-25T06:31:17.936Z,83.07
2023-01-25T06:33:19.514Z,72.68
2023-01-25T06:35:21.108Z,75.22
2023-01-25T06:37:23.059Z,100.25
2023-01-25T06:39:24.778Z,76.95
2023-01-25T06:41:26.816Z,94.78
2023-01-25T06:43:28.676Z,99.88
2023-01-25T06:45:30.158Z,120.95
2023-01-25T06:47:31.651Z,126.93
2023-01-25T06:49:33.187Z,81.78
2023-01-25T06:51:34.699Z,91.35
2023-01-25T06:53:39.971Z,82.53
2023-01-25T06:55:41.505Z,68.45
2023-01-25T06:57:43.018Z,71.40
2023-01-25T06:59:44.606Z,71.05
2023-01-25T07:01:46.230Z,71.85
2023-01-25T07:03:52.943Z,74.28
2023-01-25T07:06:03.482Z,77.88
2023-01-25T07:08:05.261Z,88.90
2023-01-25T07:10:07.258Z,96.30
2023-01-25T07:12:08.862Z,100.93
2023-01-25T07:14:10.381Z,119.32
2023-01-25T07:16:14.285Z,133.27
2023-01-25T07:18:16.786Z,202.10
2023-01-25T07:20:18.431Z,117.25
2023-01-25T07:22:19.950Z,74.00
2023-01-25T07:24:21.545Z,81.22
2023-01-25T07:26:25.540Z,100.65
2023-01-25T07:28:27.252Z,99.25
2023-01-25T07:30:29.059Z,83.75
2023-01-25T07:32:30.663Z,116.15
2023-01-25T07:34:32.219Z,125.70
2023-01-25T07:36:33.706Z,129.68
2023-01-25T07:38:36.412Z,137.13
2023-01-25T07:40:37.994Z,147.10
2023-01-25T07:42:39.494Z,153.75
2023-01-25T07:44:41.359Z,122.85
2023-01-25T07:46:42.898Z,90.10
2023-01-25T07:48:49.398Z,115.53
2023-01-25T07:51:10.839Z,83.30
2023-01-25T07:53:18.331Z,101.25
2023-01-25T07:55:20.206Z,80.68
2023-01-25T07:57:21.768Z,92.90
2023-01-25T07:59:24.477Z,81.32
2023-01-25T08:01:27.861Z,73.30
2023-01-25T08:03:29.391Z,70.75
2023-01-25T08:05:30.958Z,79.15
2023-01-25T08:07:32.548Z,74.93
2023-01-25T08:09:34.199Z,70.93
2023-01-25T08:11:36.002Z,77.32
2023-01-25T08:13:37.594Z,107.80
2023-01-25T08:15:39.567Z,101.18
2023-01-25T08:17:41.192Z,96.97
2023-01-25T08:19:43.491Z,82.78
2023-01-25T08:21:44.969Z,72.88
2023-01-25T08:23:46.832Z,74.18
2023-01-25T08:25:48.458Z,55.03
2023-01-25T08:27:52.170Z,50.33
2023-01-25T08:29:55.751Z,62.47
2023-01-25T08:31:57.421Z,73.53
2023-01-25T08:34:00.681Z,82.47
2023-01-25T08:36:03.002Z,57.92
2023-01-25T08:38:04.693Z,67.30
2023-01-25T08:40:07.867Z,75.32
2023-01-25T08:42:10.020Z,40.90
2023-01-25T08:44:11.697Z,48.13
2023-01-25T08:46:15.139Z,50.85
2023-01-25T08:48:16.657Z,42.78
2023-01-25T08:50:18.201Z,54.47
2023-01-25T08:52:21.786Z,57.20
2023-01-25T08:54:24.475Z,39.08
2023-01-25T08:56:26.154Z,29.83
2023-01-25T08:58:27.656Z,26.40
2023-01-25T09:00:29.262Z,30.75
2023-01-25T09:02:31.777Z,24.55
2023-01-25T09:04:33.342Z,36.75
2023-01-25T09:06:34.921Z,33.63
2023-01-25T09:08:38.049Z,29.92
2023-01-25T09:10:39.587Z,30.75
2023-01-25T09:12:46.019Z,42.20
2023-01-25T09:14:47.517Z,48.67
2023-01-25T09:16:49.116Z,38.92
2023-01-25T09:18:51.031Z,31.60
2023-01-25T09:20:52.703Z,24.58
2023-01-25T09:22:55.400Z,27.08
2023-01-25T09:24:56.982Z,23.90
2023-01-25T09:27:00.025Z,28.35
2023-01-25T09:29:01.938Z,29.15
2023-01-25T09:31:20.410Z,38.83
2023-01-25T09:33:28.554Z,31.27
2023-01-25T09:35:31.272Z,35.80
2023-01-25T09:37:33.600Z,28.67
2023-01-25T09:39:35.164Z,26.90
2023-01-25T09:41:45.275Z,30.42
2023-01-25T09:44:13.738Z,21.08
2023-01-25T09:46:32.367Z,21.20
2023-01-25T09:49:07.582Z,15.90
2023-01-25T09:51:25.926Z,18.83
2023-01-25T09:53:53.756Z,21.95
2023-01-25T09:55:59.662Z,24.30
2023-01-25T09:58:04.160Z,30.95
2023-01-25T10:00:32.705Z,23.90
2023-01-25T10:02:44.465Z,25.90
2023-01-25T10:04:50.287Z,40.72
2023-01-25T10:07:04.549Z,22.88
2023-01-25T10:09:19.626Z,19.92
2023-01-25T10:11:30.706Z,22.13
2023-01-25T10:13:37.133Z,34.92
2023-01-25T10:15:53.125Z,18.50
2023-01-25T10:18:26.968Z,17.20
2023-01-25T10:20:35.867Z,18.00
2023-01-25T10:22:46.764Z,16.77
2023-01-25T10:24:55.685Z,15.75
2023-01-25T10:27:18.093Z,14.85
2023-01-25T10:29:25.207Z,27.75
2023-01-25T10:31:53.629Z,35.40
2023-01-25T10:33:56.975Z,17.98
2023-01-25T10:36:21.964Z,20.30
2023-01-25T10:38:45.647Z,20.60
2023-01-25T10:40:54.504Z,20.95
2023-01-25T10:43:06.222Z,21.07
2023-01-25T10:45:15.852Z,35.03
2023-01-25T10:47:27.852Z,20.17
2023-01-25T10:49:42.928Z,21.98
2023-01-25T10:51:44.800Z,16.55
2023-01-25T10:53:59.412Z,51.40
2023-01-25T10:56:25.745Z,17.00
2023-01-25T10:59:05.857Z,34.42
2023-01-25T11:01:12.203Z,15.52
2023-01-25T11:03:20.875Z,14.85
2023-01-25T11:05:39.600Z,152.10
2023-01-25T11:07:41.146Z,25.67
2023-01-25T11:09:43.278Z,24.65
2023-01-25T11:11:59.335Z,15.35
2023-01-25T11:14:01.016Z,26.75
2023-01-25T11:16:04.919Z,13.25
2023-01-25T11:18:12.915Z,15.18
2023-01-25T11:20:20.390Z,15.73
2023-01-25T11:22:26.168Z,11.00
2023-01-25T11:24:45.925Z,11.38
2023-01-25T11:29:07.587Z,26.88
2023-01-25T11:31:29.443Z,16.10
2023-01-25T11:33:41.207Z,37.08
2023-01-25T11:36:01.490Z,20.10
2023-01-25T11:38:14.381Z,25.88
2023-01-25T11:40:27.196Z,38.58
2023-01-25T11:42:32.543Z,26.35
2023-01-25T11:45:00.226Z,14.77
2023-01-25T11:47:13.507Z,18.25
2023-01-25T11:49:23.120Z,17.00
2023-01-25T11:51:42.650Z,21.50
2023-01-25T11:54:09.562Z,20.38
2023-01-25T11:56:20.643Z,20.08
2023-01-25T11:58:40.482Z,42.42
2023-01-25T12:01:06.780Z,50.00
2023-01-25T12:03:36.394Z,92.68
2023-01-25T12:08:00.824Z,25.45
2023-01-25T12:10:23.696Z,27.48
2023-01-25T12:12:42.009Z,20.20
2023-01-25T12:14:53.418Z,21.38
2023-01-25T12:17:33.300Z,22.77
2023-01-25T12:19:57.674Z,23.98
2023-01-25T12:22:28.460Z,20.60
2023-01-25T12:25:01.080Z,21.27
2023-01-25T12:27:21.360Z,27.10
2023-01-25T12:29:32.670Z,21.23
2023-01-25T12:31:51.559Z,25.35
2023-01-25T12:34:03.776Z,25.75
2023-01-25T12:36:17.510Z,29.13
2023-01-25T12:38:35.406Z,98.63
2023-01-25T12:40:42.708Z,73.93
2023-01-25T12:42:55.932Z,56.85
2023-01-25T12:45:05.660Z,48.25
2023-01-25T12:49:19.588Z,24.88
2023-01-25T12:51:24.392Z,30.02
2023-01-25T12:53:37.489Z,37.20
2023-01-25T12:55:43.673Z,71.22
2023-01-25T12:58:02.835Z,75.47
2023-01-25T13:00:30.742Z,39.05
2023-01-25T13:04:58.972Z,67.10
2023-01-25T13:07:14.956Z,134.35
2023-01-25T13:09:26.561Z,74.32
2023-01-25T13:11:38.209Z,61.15
2023-01-25T13:13:44.794Z,105.88
2023-01-25T13:15:46.681Z,60.45
2023-01-25T13:17:48.229Z,50.13
2023-01-25T13:19:51.527Z,37.28
2023-01-25T13:21:56.624Z,52.67
2023-01-25T13:24:34.872Z,33.22
2023-01-25T13:26:54.368Z,28.33
2023-01-25T13:29:00.539Z,55.75
2023-01-25T13:31:02.351Z,32.08
2023-01-25T13:33:07.290Z,64.50
2023-01-25T13:35:29.804Z,31.02
2023-01-25T13:41:12.051Z,24.52
2023-01-25T13:43:20.470Z,26.67
2023-01-25T13:45:24.431Z,30.02
2023-01-25T13:47:39.831Z,47.05
2023-01-25T13:50:02.091Z,54.63
2023-01-25T13:52:20.113Z,44.17
2023-01-25T13:54:24.392Z,32.00
2023-01-25T13:56:55.524Z,132.60
2023-01-25T13:58:57.441Z,51.42
2023-01-25T14:01:17.309Z,45.90
2023-01-25T14:03:30.368Z,26.42
2023-01-25T14:05:40.487Z,31.80
2023-01-25T14:07:54.521Z,45.40
2023-01-25T14:09:57.677Z,38.05
2023-01-25T14:12:01.864Z,36.45
2023-01-25T14:14:49.495Z,47.63
2023-01-25T14:17:19.574Z,33.47
2023-01-25T14:19:21.032Z,38.47
2023-01-25T14:21:29.126Z,59.75
2023-01-25T14:25:59.340Z,41.05
2023-01-25T14:28:08.757Z,37.00
2023-01-25T14:30:19.003Z,42.55
2023-01-25T14:32:23.970Z,45.60
2023-01-25T14:34:27.028Z,46.10
2023-01-25T14:36:31.419Z,51.78
2023-01-25T14:38:36.150Z,151.45
2023-01-25T14:40:37.839Z,85.72
2023-01-25T14:42:39.419Z,40.60
2023-01-25T14:44:41.360Z,77.07
2023-01-25T14:46:42.891Z,79.75
2023-01-25T14:48:45.199Z,94.25
2023-01-25T14:50:47.121Z,118.68
2023-01-25T14:52:48.812Z,100.25
2023-01-25T14:54:53.402Z,67.95
2023-01-25T14:56:57.661Z,81.47
2023-01-25T14:59:00.436Z,80.90
2023-01-25T15:01:03.242Z,63.92
2023-01-25T15:03:06.124Z,61.05
2023-01-25T15:05:17.025Z,66.20
2023-01-25T15:07:57.990Z,64.75
2023-01-25T15:10:23.389Z,108.57
2023-01-25T15:12:30.299Z,105.30
2023-01-25T15:14:32.136Z,132.73
2023-01-25T15:16:34.526Z,142.70
2023-01-25T15:18:52.358Z,138.05
2023-01-25T15:20:53.878Z,122.78
2023-01-25T15:22:56.840Z,149.07
2023-01-25T15:24:58.737Z,124.28
2023-01-25T15:27:00.374Z,207.40
2023-01-25T15:29:12.719Z,195.88
2023-01-25T15:31:17.895Z,240.30
2023-01-25T15:33:22.909Z,166.50
2023-01-25T15:35:24.417Z,141.15
2023-01-25T15:37:25.893Z,160.88
2023-01-25T15:39:27.824Z,97.82
2023-01-25T15:41:29.311Z,100.75
2023-01-25T15:43:30.826Z,101.85
2023-01-25T15:45:33.050Z,170.15
2023-01-25T15:47:34.705Z,166.98
2023-01-25T15:49:39.424Z,122.43
2023-01-25T15:51:42.252Z,125.85
2023-01-25T15:53:44.235Z,98.93
2023-01-25T15:55:49.104Z,98.95
2023-01-25T15:57:50.701Z,104.68
2023-01-25T15:59:52.284Z,136.43
2023-01-25T16:01:53.846Z,137.07
2023-01-25T16:03:57.015Z,114.95
2023-01-25T16:06:04.077Z,112.97
2023-01-25T16:08:05.748Z,79.05
2023-01-25T16:10:18.566Z,81.00
2023-01-25T16:12:22.277Z,73.50
2023-01-25T16:14:29.234Z,77.00
2023-01-25T16:16:30.915Z,88.28
2023-01-25T16:18:32.795Z,93.68
2023-01-25T16:20:34.321Z,104.60
2023-01-25T16:22:35.920Z,103.20
2023-01-25T16:24:39.529Z,108.47
2023-01-25T16:26:48.337Z,102.03
2023-01-25T16:28:50.101Z,85.75
2023-01-25T16:30:51.691Z,318.00
2023-01-25T16:32:53.926Z,337.35
2023-01-25T16:34:55.434Z,173.10
2023-01-25T16:36:59.747Z,177.52
2023-01-25T16:39:15.880Z,171.80
2023-01-25T16:41:18.644Z,118.72
2023-01-25T16:43:22.729Z,125.05
2023-01-25T16:45:25.373Z,109.30
2023-01-25T16:47:27.974Z,95.93
2023-01-25T16:49:30.683Z,99.65
2023-01-25T16:51:33.022Z,99.70
2023-01-25T16:53:34.640Z,67.43
2023-01-25T16:55:37.320Z,60.00
2023-01-25T16:57:41.904Z,66.22
2023-01-25T16:59:43.439Z,70.97
2023-01-25T17:01:45.343Z,82.90
2023-01-25T17:03:47.480Z,82.47
2023-01-25T17:05:48.952Z,90.90
2023-01-25T17:07:51.398Z,95.43
2023-01-25T17:09:52.931Z,241.50
2023-01-25T17:11:54.789Z,349.75
2023-01-25T17:13:58.598Z,243.68
2023-01-25T17:16:01.175Z,224.63
2023-01-25T17:18:02.728Z,353.80
2023-01-25T17:20:04.955Z,256.80
2023-01-25T17:22:06.652Z,280.90
2023-01-25T17:24:08.818Z,232.65
2023-01-25T17:26:13.241Z,182.10
2023-01-25T17:28:14.845Z,144.02
2023-01-25T17:30:18.462Z,178.68
2023-01-25T17:32:20.337Z,158.77
2023-01-25T17:34:22.140Z,135.10
2023-01-25T17:36:24.232Z,160.43
2023-01-25T17:38:26.666Z,133.32
2023-01-25T17:40:28.326Z,158.15
2023-01-25T17:42:29.840Z,156.90
2023-01-25T17:44:31.411Z,173.77
2023-01-25T17:46:37.349Z,394.52
2023-01-25T17:48:39.642Z,436.15
2023-01-25T17:50:41.198Z,221.55
2023-01-25T17:52:42.751Z,256.92
2023-01-25T17:54:44.293Z,181.90
2023-01-25T17:56:45.775Z,86.55
2023-01-25T17:58:47.682Z,77.10
2023-01-25T18:00:49.189Z,70.25
2023-01-25T18:02:51.807Z,88.80
2023-01-25T18:04:53.622Z,136.57
2023-01-25T18:06:55.147Z,121.38
2023-01-25T18:09:02.420Z,563.17
2023-01-25T18:11:06.588Z,70.40
2023-01-25T18:13:08.094Z,149.43
2023-01-25T18:15:10.335Z,133.75
2023-01-25T18:17:12.428Z,563.08
2023-01-25T18:19:14.050Z,511.40
2023-01-25T18:21:24.220Z,86.50
2023-01-25T18:23:25.886Z,233.00
2023-01-25T18:25:35.374Z,102.53
2023-01-25T18:27:36.874Z,143.50
2023-01-25T18:29:47.637Z,28.25
2023-01-25T18:31:49.328Z,60.63
2023-01-25T18:33:51.017Z,174.18
2023-01-25T18:35:53.939Z,392.90
2023-01-25T18:37:56.868Z,152.95
2023-01-25T18:39:58.548Z,149.65
2023-01-25T18:42:00.086Z,68.35
2023-01-25T18:44:01.631Z,498.85
2023-01-25T18:46:03.754Z,254.57
2023-01-25T18:48:13.081Z,83.75
2023-01-25T18:50:16.242Z,232.85
2023-01-25T18:52:19.193Z,100.25
2023-01-25T18:54:20.812Z,372.52
2023-01-25T18:56:22.310Z,80.15
2023-01-25T18:58:23.804Z,51.92
2023-01-25T19:00:25.338Z,95.30
2023-01-25T19:02:26.997Z,156.77
2023-01-25T19:04:28.720Z,286.48
2023-01-25T19:06:30.506Z,59.80
2023-01-25T19:08:33.682Z,49.10
2023-01-25T19:10:35.296Z,244.75
2023-01-25T19:12:36.838Z,53.03
2023-01-25T19:14:38.433Z,94.25
2023-01-25T19:16:40.020Z,650.28
2023-01-25T19:18:46.471Z,345.55
2023-01-25T19:20:47.992Z,47.65
2023-01-25T19:22:49.753Z,35.38
2023-01-25T19:24:51.349Z,48.63
2023-01-25T19:26:56.070Z,212.65
2023-01-25T19:28:57.601Z,175.60
2023-01-25T19:31:06.985Z,121.38
2023-01-25T19:33:08.704Z,106.18
2023-01-25T19:35:10.535Z,153.73
2023-01-25T19:37:12.299Z,139.30
2023-01-25T19:39:14.536Z,128.30
2023-01-25T19:41:18.859Z,87.57
2023-01-25T19:43:20.418Z,41.70
2023-01-25T19:45:21.937Z,158.95
2023-01-25T19:47:23.474Z,68.68
2023-01-25T19:49:25.002Z,188.57
2023-01-25T19:51:29.903Z,68.40
2023-01-25T19:53:31.468Z,142.07
2023-01-25T19:55:33.049Z,180.20
2023-01-25T19:57:34.845Z,104.85
2023-01-25T19:59:36.430Z,57.45
2023-01-25T20:01:43.840Z,123.13
2023-01-25T20:03:46.046Z,130.95
2023-01-25T20:05:57.208Z,162.77
2023-01-25T20:07:58.690Z,127.95
2023-01-25T20:10:00.222Z,56.45
2023-01-25T20:12:05.813Z,95.15
2023-01-25T20:14:08.217Z,77.18
2023-01-25T20:16:12.138Z,64.75
2023-01-25T20:18:13.898Z,26.80
2023-01-25T20:20:15.685Z,34.88
2023-01-25T20:22:17.295Z,26.15
2023-01-25T20:24:18.923Z,35.63
2023-01-25T20:26:23.428Z,47.67
2023-01-25T20:28:25.931Z,32.10
2023-01-25T20:30:27.455Z,32.67
2023-01-25T20:32:32.973Z,38.88
2023-01-25T20:34:34.880Z,53.38
2023-01-25T20:36:36.688Z,161.55
2023-01-25T20:38:38.219Z,42.97
2023-01-25T20:40:39.784Z,94.03
2023-01-25T20:42:41.309Z,92.28
2023-01-25T20:44:42.816Z,42.20
2023-01-25T20:46:44.810Z,53.42
2023-01-25T20:48:46.723Z,47.58
2023-01-25T20:50:48.374Z,45.75
2023-01-25T20:52:49.849Z,33.67
2023-01-25T20:54:52.319Z,35.47
2023-01-25T20:56:53.882Z,34.85
2023-01-25T20:58:55.430Z,39.78
2023-01-25T21:00:57.049Z,53.42
2023-01-25T21:02:58.603Z,69.90
2023-01-25T21:05:00.109Z,54.67
2023-01-25T21:07:01.579Z,63.83
2023-01-25T21:09:03.853Z,61.58
2023-01-25T21:11:06.315Z,39.38
2023-01-25T21:13:07.842Z,35.85
2023-01-25T21:15:11.048Z,36.85
2023-01-25T21:17:14.326Z,33.33
2023-01-25T21:19:15.876Z,33.05
2023-01-25T21:21:20.399Z,28.13
2023-01-25T21:23:21.919Z,28.38
2023-01-25T21:25:23.453Z,31.33
2023-01-25T21:27:29.439Z,32.30
2023-01-25T21:29:31.001Z,41.78
2023-01-25T21:31:40.131Z,38.33
2023-01-25T21:33:42.216Z,31.50
2023-01-25T21:35:43.747Z,47.78
2023-01-25T21:37:46.210Z,33.25
2023-01-25T21:39:48.007Z,46.10
2023-01-25T21:41:49.889Z,27.88
2023-01-25T21:44:14.021Z,34.97
2023-01-25T21:46:16.244Z,34.25
2023-01-25T21:48:37.873Z,25.83
2023-01-25T21:50:58.210Z,52.20
2023-01-25T21:52:59.721Z,44.10
2023-01-25T21:55:01.495Z,51.25
2023-01-25T21:57:08.461Z,50.45
2023-01-25T21:59:10.396Z,37.55
2023-01-25T22:01:11.991Z,41.30
2023-01-25T22:03:13.528Z,35.70
2023-01-25T22:05:15.124Z,31.95
2023-01-25T22:07:16.666Z,26.50
2023-01-25T22:09:18.789Z,31.92
2023-01-25T22:11:20.547Z,25.90
2023-01-25T22:13:22.179Z,28.02
2023-01-25T22:15:23.821Z,32.30
2023-01-25T22:17:25.744Z,36.35
2023-01-25T22:19:27.274Z,29.63
2023-01-25T22:21:33.339Z,16.48
2023-01-25T22:23:35.840Z,35.45
2023-01-25T22:25:37.325Z,44.03
2023-01-25T22:27:59.739Z,31.25
2023-01-25T22:30:01.313Z,18.65
2023-01-25T22:32:02.923Z,22.95
2023-01-25T22:34:04.718Z,30.88
2023-01-25T22:36:06.729Z,23.42
2023-01-25T22:38:08.248Z,23.90
2023-01-25T22:40:10.677Z,32.53
2023-01-25T22:42:12.425Z,25.42
2023-01-25T22:44:14.733Z,44.83
2023-01-25T22:46:19.111Z,29.73
2023-01-25T22:48:20.710Z,27.75
2023-01-25T22:50:22.267Z,19.98
2023-01-25T22:52:23.854Z,17.40
2023-01-25T22:54:25.404Z,15.93
2023-01-25T22:56:29.163Z,15.00
2023-01-25T22:58:31.096Z,17.42
2023-01-25T23:00:32.679Z,23.73
2023-01-25T23:02:34.230Z,22.77
2023-01-25T23:04:36.046Z,23.60
2023-01-25T23:06:38.041Z,24.67
2023-01-25T23:08:40.116Z,22.55
2023-01-25T23:10:41.649Z,19.75
2023-01-25T23:12:43.198Z,20.42
2023-01-25T23:14:47.370Z,20.45
2023-01-25T23:16:48.973Z,23.02
2023-01-25T23:18:50.496Z,29.67
2023-01-25T23:20:52.012Z,22.90
2023-01-25T23:22:53.564Z,26.50
2023-01-25T23:24:55.087Z,29.27
2023-01-25T23:26:56.592Z,22.60
2023-01-25T23:28:58.101Z,25.08
2023-01-25T23:31:19.824Z,20.25
2023-01-25T23:33:21.425Z,28.40
2023-01-25T23:35:23.270Z,31.40
2023-01-25T23:37:24.820Z,43.80
2023-01-25T23:39:27.095Z,32.47
2023-01-25T23:41:30.119Z,34.80
2023-01-25T23:43:31.863Z,37.78
2023-01-25T23:45:34.248Z,33.13
2023-01-25T23:47:35.965Z,36.10
2023-01-25T23:49:37.570Z,33.08
2023-01-25T23:51:39.098Z,38.30
2023-01-25T23:53:41.577Z,35.80
2023-01-25T23:55:55.051Z,31.45
2023-01-25T23:57:56.555Z,27.05
2023-01-25T23:59:58.081Z,33.53
